Time;durP1;ratioP1;P1;durP2;ratioP2;P2;SDS_P1;SDS_P2;PMS_P1;PMS_P2;Temp;Humidity;BMP_temperature;BMP_pressure;BME280_temperature;BME280_humidity;BME280_pressure;Samples;Min_cycle;Max_cycle;Signal;HPM_P1;HPM_P2
2021/10/23 00:00:03;;;;;;;7.03;0.70;;;6.20;99.90;;;;;;5094684;28;20423;-84
2021/10/23 00:02:28;;;;;;;6.30;1.30;;;6.20;99.90;;;;;;5094654;28;20773;-85
2021/10/23 00:04:54;;;;;;;7.87;1.00;;;6.00;99.90;;;;;;5094710;28;20439;-87
2021/10/23 00:07:20;;;;;;;6.57;1.10;;;6.00;99.90;;;;;;5084115;28;20179;-86
2021/10/23 00:09:45;;;;;;;7.70;0.40;;;5.90;99.90;;;;;;5114863;28;20213;-86
2021/10/23 00:12:11;;;;;;;7.83;0.77;;;5.80;99.90;;;;;;5114596;28;20164;-87
2021/10/23 00:14:37;;;;;;;1.50;0.40;;;5.80;99.90;;;;;;5096201;28;20172;-87
2021/10/23 00:17:05;;;;;;;5.70;1.40;;;5.80;99.90;;;;;;5096615;28;20261;-85
2021/10/23 00:19:31;;;;;;;7.50;1.53;;;5.70;99.90;;;;;;5114677;28;20419;-88
2021/10/23 00:21:57;;;;;;;3.60;0.80;;;5.80;99.90;;;;;;5114839;28;20413;-87
2021/10/23 00:24:23;;;;;;;6.43;1.50;;;5.70;99.90;;;;;;5114524;28;20205;-87
2021/10/23 00:26:54;;;;;;;3.07;0.40;;;5.70;99.90;;;;;;5115835;27;20449;-85
2021/10/23 00:29:20;;;;;;;4.53;0.73;;;6.50;99.90;;;;;;5116130;27;20174;-84
2021/10/23 00:31:45;;;;;;;6.43;1.43;;;5.70;99.90;;;;;;5118032;27;20422;-85
2021/10/23 00:34:11;;;;;;;5.53;1.10;;;5.60;99.90;;;;;;5114042;28;20182;-87
2021/10/23 00:36:36;;;;;;;6.97;1.03;;;5.60;99.90;;;;;;5095693;28;20168;-86
2021/10/23 00:39:02;;;;;;;2.10;1.00;;;5.60;99.90;;;;;;5113772;28;20207;-86
2021/10/23 00:41:28;;;;;;;5.30;0.40;;;5.50;99.90;;;;;;5114186;28;20168;-87
2021/10/23 00:43:53;;;;;;;3.23;0.70;;;5.50;99.90;;;;;;5095602;28;20421;-88
2021/10/23 00:46:19;;;;;;;5.77;0.70;;;5.60;99.90;;;;;;5114445;28;20174;-87
2021/10/23 00:48:45;;;;;;;0.90;0.30;;;5.60;99.90;;;;;;5096121;28;20168;-87
2021/10/23 00:51:13;;;;;;;6.23;0.63;;;5.60;99.90;;;;;;5114249;28;20262;-85
2021/10/23 00:53:39;;;;;;;4.00;0.80;;;5.60;99.90;;;;;;5113599;28;20497;-86
2021/10/23 00:56:08;;;;;;;4.90;1.10;;;5.70;99.90;;;;;;5113367;28;20770;-86
2021/10/23 00:58:34;;;;;;;10.33;1.07;;;5.70;99.90;;;;;;5113304;28;20559;-87
2021/10/23 01:01:00;;;;;;;5.03;0.97;;;5.70;99.90;;;;;;5113832;28;20492;-80
2021/10/23 01:03:26;;;;;;;3.63;0.30;;;5.60;99.90;;;;;;5114477;28;20248;-90
2021/10/23 01:05:53;;;;;;;2.43;0.33;;;5.70;99.90;;;;;;5114909;28;20409;-89
2021/10/23 01:08:21;;;;;;;3.30;0.83;;;5.70;99.90;;;;;;5114608;28;20252;-88
2021/10/23 01:10:47;;;;;;;1.40;0.40;;;7.30;99.90;;;;;;5114147;28;20445;-87
2021/10/23 01:13:16;;;;;;;2.43;0.50;;;5.80;99.90;;;;;;5113484;28;20416;-87
2021/10/23 01:15:41;;;;;;;3.03;0.50;;;5.70;99.90;;;;;;5111981;28;20815;-88
2021/10/23 01:18:08;;;;;;;3.30;0.47;;;5.80;99.90;;;;;;5113898;28;20465;-86
2021/10/23 01:20:34;;;;;;;7.20;1.40;;;5.70;99.90;;;;;;5113843;28;20209;-88
2021/10/23 01:23:09;;;;;;;6.07;0.70;;;5.70;99.90;;;;;;5113882;28;20432;-88
2021/10/23 01:25:35;;;;;;;5.70;1.60;;;5.70;99.90;;;;;;5113997;28;20432;-88
2021/10/23 01:28:02;;;;;;;2.67;0.40;;;5.70;99.90;;;;;;5113360;28;20422;-88
2021/10/23 01:30:29;;;;;;;4.83;0.70;;;5.70;99.90;;;;;;5095311;28;20565;-87
2021/10/23 01:32:55;;;;;;;5.33;1.10;;;5.70;99.90;;;;;;5113832;28;20496;-87
2021/10/23 01:35:22;;;;;;;9.37;0.43;;;5.70;99.90;;;;;;5113274;28;20413;-86
2021/10/23 01:37:48;;;;;;;2.40;0.63;;;5.80;99.90;;;;;;5113046;28;20469;-86
2021/10/23 01:40:20;;;;;;;4.67;0.67;;;5.80;99.90;;;;;;5111906;28;20533;-86
2021/10/23 01:42:49;;;;;;;4.73;0.63;;;5.90;99.90;;;;;;5112934;28;20421;-86
2021/10/23 01:45:14;;;;;;;3.43;0.47;;;6.00;99.90;;;;;;5113322;28;20447;-86
2021/10/23 01:47:47;;;;;;;9.57;1.03;;;6.10;99.90;;;;;;5113571;28;20414;-87
2021/10/23 01:50:19;;;;;;;3.43;0.47;;;6.10;99.90;;;;;;5095076;28;20164;-87
2021/10/23 01:52:45;;;;;;;4.77;0.97;;;6.10;99.90;;;;;;5113416;28;20462;-87
2021/10/23 01:55:12;;;;;;;7.37;0.90;;;6.10;99.90;;;;;;5113582;28;20441;-87
2021/10/23 01:57:39;;;;;;;5.23;1.40;;;6.10;99.90;;;;;;5095203;28;20478;-84
2021/10/23 02:00:07;;;;;;;2.40;0.53;;;6.10;99.90;;;;;;5113036;28;20405;-86
2021/10/23 02:02:32;;;;;;;2.70;0.77;;;6.10;99.90;;;;;;5113063;28;20446;-85
2021/10/23 02:04:58;;;;;;;6.10;0.70;;;6.10;99.90;;;;;;5095032;28;20469;-80
2021/10/23 02:07:23;;;;;;;3.00;0.97;;;6.10;99.90;;;;;;5117419;28;20192;-88
2021/10/23 02:09:49;;;;;;;10.50;2.90;;;6.20;99.90;;;;;;5099057;28;20176;-83
2021/10/23 02:12:14;;;;;;;6.17;0.40;;;6.10;99.90;;;;;;5117053;28;20663;-86
2021/10/23 02:14:40;;;;;;;4.83;0.97;;;6.00;99.90;;;;;;5116923;28;20218;-86
2021/10/23 02:17:06;;;;;;;6.77;0.60;;;6.00;99.90;;;;;;5098626;28;20203;-86
2021/10/23 02:19:31;;;;;;;3.30;0.60;;;6.10;99.90;;;;;;5117132;28;20531;-86
2021/10/23 02:21:57;;;;;;;7.93;0.90;;;6.20;99.90;;;;;;5117069;28;20163;-87
2021/10/23 02:24:26;;;;;;;3.27;0.50;;;6.20;99.90;;;;;;5117235;28;20188;-86
2021/10/23 02:26:51;;;;;;;12.07;1.60;;;6.20;99.90;;;;;;5116739;28;20544;-87
2021/10/23 02:29:17;;;;;;;5.80;0.90;;;6.20;99.90;;;;;;5098737;28;20509;-85
2021/10/23 02:31:42;;;;;;;3.70;0.50;;;6.10;99.90;;;;;;5116709;28;20835;-87
2021/10/23 02:34:08;;;;;;;8.07;0.73;;;6.10;99.90;;;;;;5116115;28;20282;-85
2021/10/23 02:36:36;;;;;;;7.40;1.20;;;6.20;99.90;;;;;;5116891;28;20168;-88
2021/10/23 02:39:02;;;;;;;6.43;1.27;;;6.20;99.90;;;;;;5098899;28;20202;-85
2021/10/23 02:41:28;;;;;;;2.70;0.60;;;6.10;99.90;;;;;;5098776;28;20897;-82
2021/10/23 02:43:55;;;;;;;7.70;1.07;;;6.00;99.90;;;;;;5116243;28;20439;-86
2021/10/23 02:46:21;;;;;;;3.40;0.53;;;6.10;99.90;;;;;;5116500;28;20264;-86
2021/10/23 02:48:47;;;;;;;3.63;0.87;;;6.00;99.90;;;;;;5098653;28;20429;-89
2021/10/23 02:51:13;;;;;;;2.43;0.37;;;6.00;99.90;;;;;;5098894;28;20474;-89
2021/10/23 02:53:38;;;;;;;2.73;0.93;;;6.00;99.90;;;;;;5098991;28;20175;-89
2021/10/23 02:56:05;;;;;;;4.30;0.47;;;6.10;99.90;;;;;;5116952;28;20408;-89
2021/10/23 02:58:30;;;;;;;5.20;2.13;;;6.20;99.90;;;;;;5098756;28;20280;-89
2021/10/23 03:00:56;;;;;;;2.60;0.53;;;6.20;99.90;;;;;;5116962;28;20442;-89
2021/10/23 03:03:22;;;;;;;6.13;0.73;;;6.20;99.90;;;;;;5117263;28;20596;-89
2021/10/23 03:05:48;;;;;;;3.70;0.33;;;6.30;99.90;;;;;;5098995;28;20469;-90
2021/10/23 03:08:15;;;;;;;3.80;1.23;;;6.30;99.90;;;;;;5116389;28;20214;-86
2021/10/23 03:10:41;;;;;;;6.00;0.53;;;6.30;99.90;;;;;;5116101;28;20404;-87
2021/10/23 03:13:06;;;;;;;4.10;0.50;;;6.50;99.90;;;;;;5115761;28;20974;-86
2021/10/23 03:15:32;;;;;;;3.60;1.00;;;6.40;99.90;;;;;;5115737;28;20528;-86
2021/10/23 03:17:57;;;;;;;2.50;0.80;;;6.60;99.90;;;;;;5114744;28;20205;-85
2021/10/23 03:20:28;;;;;;;7.93;0.90;;;6.40;99.90;;;;;;5115852;28;20556;-87
2021/10/23 03:22:53;;;;;;;1.50;0.30;;;6.50;99.90;;;;;;5115654;28;20242;-85
2021/10/23 03:25:19;;;;;;;5.20;0.83;;;6.40;99.90;;;;;;5097654;28;20464;-87
2021/10/23 03:27:45;;;;;;;2.40;0.67;;;6.50;99.90;;;;;;5115398;28;20189;-87
2021/10/23 03:30:10;;;;;;;4.67;0.30;;;6.50;99.90;;;;;;5115785;28;20169;-88
2021/10/23 03:32:36;;;;;;;4.67;0.87;;;6.40;99.90;;;;;;5097574;28;20169;-86
2021/10/23 03:35:03;;;;;;;4.40;1.30;;;6.30;99.90;;;;;;5115652;28;20171;-82
2021/10/23 03:37:31;;;;;;;5.17;0.40;;;6.20;99.90;;;;;;5096767;28;20204;-86
2021/10/23 03:39:58;;;;;;;4.17;1.03;;;6.10;99.90;;;;;;5097323;28;20509;-88
2021/10/23 03:42:24;;;;;;;2.23;0.53;;;6.10;99.90;;;;;;5115542;28;20546;-87
2021/10/23 03:44:50;;;;;;;3.30;0.67;;;6.00;99.90;;;;;;5115448;28;20969;-87
2021/10/23 03:47:16;;;;;;;3.77;0.57;;;5.90;99.90;;;;;;5115498;28;20167;-88
2021/10/23 03:49:43;;;;;;;7.23;0.70;;;5.90;99.90;;;;;;5115903;28;20507;-87
2021/10/23 03:52:09;;;;;;;3.27;0.83;;;5.70;99.90;;;;;;5116164;28;20421;-87
2021/10/23 03:54:35;;;;;;;3.67;0.60;;;5.80;99.90;;;;;;5115991;28;20408;-83
2021/10/23 03:57:00;;;;;;;8.63;1.57;;;5.70;99.90;;;;;;5115664;28;20452;-91
2021/10/23 03:59:26;;;;;;;6.17;0.60;;;5.60;99.90;;;;;;5116100;28;20528;-91
2021/10/23 04:01:52;;;;;;;2.57;0.50;;;5.60;99.90;;;;;;5115961;28;20167;-87
2021/10/23 04:04:17;;;;;;;1.80;0.30;;;5.50;99.90;;;;;;5098095;28;20170;-91
2021/10/23 04:06:43;;;;;;;8.40;1.00;;;5.60;99.90;;;;;;5116270;28;20545;-91
2021/10/23 04:09:08;;;;;;;9.60;0.97;;;5.70;99.90;;;;;;5097444;28;20183;-86
2021/10/23 04:11:37;;;;;;;5.23;0.53;;;5.80;99.90;;;;;;5114908;28;20248;-86
2021/10/23 04:14:03;;;;;;;8.37;0.30;;;5.80;99.90;;;;;;5114901;28;20167;-82
2021/10/23 04:16:29;;;;;;;4.33;0.40;;;5.80;99.90;;;;;;5114556;28;20453;-85
2021/10/23 04:18:54;;;;;;;4.63;0.63;;;5.90;99.90;;;;;;5096173;28;20433;-86
2021/10/23 04:21:20;;;;;;;2.10;0.50;;;6.00;99.90;;;;;;5114449;28;20199;-86
2021/10/23 04:23:49;;;;;;;6.13;0.97;;;6.00;99.90;;;;;;5114476;28;20643;-84
2021/10/23 04:26:17;;;;;;;3.70;0.30;;;6.10;99.90;;;;;;5114100;28;20406;-86
2021/10/23 04:28:43;;;;;;;6.77;0.80;;;6.00;99.90;;;;;;5114514;28;20773;-86
2021/10/23 04:31:08;;;;;;;5.20;0.67;;;6.00;99.90;;;;;;5114125;28;20409;-84
2021/10/23 04:33:35;;;;;;;6.17;0.63;;;6.00;99.90;;;;;;5114148;28;20160;-85
2021/10/23 04:36:00;;;;;;;3.13;1.20;;;6.00;99.90;;;;;;5095970;28;20531;-86
2021/10/23 04:38:29;;;;;;;6.33;1.00;;;6.00;99.90;;;;;;5113996;28;20518;-89
2021/10/23 04:40:55;;;;;;;8.33;0.60;;;6.70;99.90;;;;;;5096601;28;20170;-88
2021/10/23 04:43:20;;;;;;;2.10;0.70;;;5.80;99.90;;;;;;5114224;28;20523;-87
2021/10/23 04:45:46;;;;;;;3.63;0.50;;;5.80;99.90;;;;;;5114793;28;20165;-89
2021/10/23 04:48:12;;;;;;;8.80;1.40;;;5.70;99.90;;;;;;5096828;28;20171;-89
2021/10/23 04:50:37;;;;;;;8.37;0.60;;;5.60;99.90;;;;;;5114999;28;20699;-89
2021/10/23 04:53:03;;;;;;;4.83;0.70;;;5.70;99.90;;;;;;5114923;28;20694;-88
2021/10/23 04:55:29;;;;;;;7.70;1.17;;;5.80;99.90;;;;;;5096715;28;20275;-87
2021/10/23 04:57:57;;;;;;;4.17;0.93;;;5.80;99.90;;;;;;5114694;28;20301;-89
2021/10/23 05:00:23;;;;;;;4.73;0.30;;;5.80;99.90;;;;;;5114592;28;20156;-88
2021/10/23 05:02:48;;;;;;;8.50;0.70;;;5.80;99.90;;;;;;5114677;28;20446;-88
2021/10/23 05:05:14;;;;;;;4.73;0.90;;;5.80;99.90;;;;;;5114648;28;20167;-90
2021/10/23 05:07:39;;;;;;;9.70;1.07;;;5.80;99.90;;;;;;5096838;28;20172;-84
2021/10/23 05:10:06;;;;;;;4.43;0.73;;;5.80;99.90;;;;;;5114390;28;20170;-87
2021/10/23 05:12:31;;;;;;;4.17;0.30;;;5.70;99.90;;;;;;5114443;28;20171;-87
2021/10/23 05:14:57;;;;;;;8.53;1.23;;;5.60;99.90;;;;;;5114398;28;20466;-88
2021/10/23 05:17:22;;;;;;;4.23;0.67;;;5.60;99.90;;;;;;5114582;28;20206;-87
2021/10/23 05:19:48;;;;;;;4.63;0.67;;;5.80;99.90;;;;;;5114404;28;20167;-88
2021/10/23 05:22:14;;;;;;;1.70;0.47;;;5.80;99.90;;;;;;5114020;28;20168;-89
2021/10/23 05:24:39;;;;;;;9.23;0.70;;;5.90;99.90;;;;;;5114113;28;20246;-89
2021/10/23 05:27:05;;;;;;;5.83;0.50;;;5.90;99.90;;;;;;5114155;28;20178;-89
2021/10/23 05:29:30;;;;;;;4.60;0.40;;;5.90;99.90;;;;;;5114126;28;20172;-88
2021/10/23 05:31:56;;;;;;;5.43;0.50;;;6.00;99.90;;;;;;5114400;28;20288;-88
2021/10/23 05:34:23;;;;;;;5.50;0.83;;;5.90;99.90;;;;;;5113959;28;20163;-88
2021/10/23 05:36:49;;;;;;;6.07;0.80;;;5.90;99.90;;;;;;5114003;28;20170;-88
2021/10/23 05:39:15;;;;;;;2.33;0.50;;;5.90;99.90;;;;;;5113921;28;20409;-88
2021/10/23 05:41:40;;;;;;;3.23;0.60;;;5.90;99.90;;;;;;5113019;28;20409;-87
2021/10/23 05:44:06;;;;;;;5.10;0.60;;;6.00;99.90;;;;;;5113887;28;20228;-87
2021/10/23 05:46:31;;;;;;;4.07;0.40;;;6.00;99.90;;;;;;5113631;28;20533;-87
2021/10/23 05:49:00;;;;;;;4.50;1.30;;;5.80;99.90;;;;;;5113605;28;20752;-88
2021/10/23 05:51:25;;;;;;;6.47;0.47;;;5.90;99.90;;;;;;5113584;28;20262;-89
2021/10/23 05:53:51;;;;;;;2.93;0.37;;;5.70;99.90;;;;;;5113868;28;20444;-89
2021/10/23 05:56:17;;;;;;;5.53;1.07;;;5.70;99.90;;;;;;5095746;28;20183;-88
2021/10/23 05:58:42;;;;;;;5.33;0.53;;;5.70;99.90;;;;;;5113324;28;20259;-88
2021/10/23 06:01:08;;;;;;;3.67;0.47;;;5.80;99.90;;;;;;5127194;28;20543;-88
2021/10/23 06:03:38;;;;;;;4.47;0.40;;;5.80;99.90;;;;;;5115672;28;20542;-88
2021/10/23 06:06:06;;;;;;;3.40;1.67;;;5.90;99.90;;;;;;5134210;28;20964;-88
2021/10/23 06:08:32;;;;;;;2.97;0.40;;;5.80;99.90;;;;;;5134137;28;20469;-88
2021/10/23 06:10:58;;;;;;;7.20;0.63;;;5.80;99.90;;;;;;5115604;28;20416;-88
2021/10/23 06:13:34;;;;;;;2.53;0.93;;;5.80;99.90;;;;;;5134344;28;20499;-88
2021/10/23 06:15:59;;;;;;;8.87;0.97;;;5.60;99.90;;;;;;5134246;28;20455;-86
2021/10/23 06:18:26;;;;;;;5.50;2.10;;;5.80;99.90;;;;;;5115672;28;20550;-84
2021/10/23 06:20:51;;;;;;;3.60;0.97;;;5.80;99.90;;;;;;5134224;28;20462;-88
2021/10/23 06:23:17;;;;;;;1.20;0.47;;;5.70;99.90;;;;;;5135404;28;20982;-87
2021/10/23 06:25:42;;;;;;;2.73;0.50;;;5.80;99.90;;;;;;5135572;28;20159;-89
2021/10/23 06:28:08;;;;;;;6.03;0.93;;;5.80;99.90;;;;;;5134552;28;20171;-87
2021/10/23 06:30:34;;;;;;;6.20;0.53;;;5.70;99.90;;;;;;5115354;28;20167;-91
2021/10/23 06:32:59;;;;;;;6.57;0.80;;;5.70;99.90;;;;;;5115603;28;20544;-82
2021/10/23 06:35:26;;;;;;;8.60;0.53;;;5.70;99.90;;;;;;5134062;28;20183;-81
2021/10/23 06:37:52;;;;;;;4.77;0.70;;;5.80;99.90;;;;;;5133842;28;20234;-90
2021/10/23 06:40:18;;;;;;;3.77;0.53;;;5.90;99.90;;;;;;5134224;28;20420;-82
2021/10/23 06:42:44;;;;;;;6.03;1.03;;;5.90;99.90;;;;;;5133530;28;20408;-89
2021/10/23 06:45:14;;;;;;;2.10;0.30;;;6.00;99.90;;;;;;5115322;28;20171;-85
2021/10/23 06:47:40;;;;;;;8.23;1.60;;;6.00;99.90;;;;;;5115219;28;20423;-87
2021/10/23 06:50:08;;;;;;;9.30;0.90;;;6.30;99.90;;;;;;5114975;28;20424;-88
2021/10/23 06:52:34;;;;;;;4.53;0.50;;;6.50;99.90;;;;;;5134490;27;20500;-91
2021/10/23 06:54:59;;;;;;;7.37;0.97;;;6.70;99.90;;;;;;5137454;27;20466;-80
2021/10/23 06:57:25;;;;;;;8.80;0.87;;;6.60;99.90;;;;;;5136820;27;20461;-85
2021/10/23 06:59:51;;;;;;;6.87;0.70;;;6.70;99.90;;;;;;5119008;27;20576;-86
2021/10/23 07:02:16;;;;;;;1.60;0.23;;;6.70;99.90;;;;;;5137592;27;20182;-89
2021/10/23 07:04:45;;;;;;;7.93;1.20;;;6.70;99.90;;;;;;5119228;27;20167;-90
2021/10/23 07:07:10;;;;;;;7.80;0.90;;;7.40;99.90;;;;;;5137292;27;20172;-84
2021/10/23 07:09:36;;;;;;;5.07;0.50;;;6.90;99.90;;;;;;5137077;27;20411;-83
2021/10/23 07:12:02;;;;;;;9.47;0.90;;;6.90;99.90;;;;;;5118064;27;20266;-84
2021/10/23 07:14:27;;;;;;;3.63;0.73;;;7.00;99.90;;;;;;5135847;27;20163;-81
2021/10/23 07:16:53;;;;;;;8.03;1.07;;;7.10;99.90;;;;;;5136703;27;20180;-82
2021/10/23 07:19:19;;;;;;;3.50;0.63;;;7.10;99.90;;;;;;5136764;27;20189;-82
2021/10/23 07:21:44;;;;;;;3.13;0.57;;;7.10;99.90;;;;;;5136742;27;20531;-83
2021/10/23 07:24:10;;;;;;;7.07;3.13;;;7.20;99.90;;;;;;5136510;27;20666;-82
2021/10/23 07:26:36;;;;;;;2.93;0.53;;;7.20;99.90;;;;;;5136024;27;20184;-83
2021/10/23 07:29:05;;;;;;;3.13;0.90;;;7.20;99.90;;;;;;5136466;27;20680;-83
2021/10/23 07:31:31;;;;;;;3.13;0.80;;;7.20;99.90;;;;;;5136462;27;20175;-87
2021/10/23 07:33:57;;;;;;;2.20;0.30;;;7.30;99.90;;;;;;5136078;27;20445;-83
2021/10/23 07:36:23;;;;;;;1.70;0.47;;;7.40;99.90;;;;;;5136426;27;20757;-87
2021/10/23 07:38:49;;;;;;;2.03;0.63;;;7.50;99.90;;;;;;5136121;27;20558;-86
2021/10/23 07:41:15;;;;;;;8.63;1.07;;;7.30;99.90;;;;;;5135783;27;20181;-85
2021/10/23 07:43:42;;;;;;;4.70;0.93;;;7.50;99.90;;;;;;5136242;27;20173;-82
2021/10/23 07:46:08;;;;;;;7.40;1.53;;;8.20;99.90;;;;;;5136093;27;20515;-83
2021/10/23 07:48:35;;;;;;;3.83;0.63;;;7.80;99.90;;;;;;5129284;27;20518;-82
2021/10/23 07:51:03;;;;;;;5.00;0.53;;;7.90;99.90;;;;;;5110621;27;20310;-86
2021/10/23 07:53:31;;;;;;;3.03;0.37;;;8.00;99.90;;;;;;5112043;28;20423;-87
2021/10/23 07:55:57;;;;;;;4.67;0.53;;;8.00;99.90;;;;;;5114978;28;20407;-85
2021/10/23 07:58:23;;;;;;;6.23;0.67;;;8.10;99.90;;;;;;5115753;28;20512;-83
2021/10/23 08:00:50;;;;;;;4.67;0.30;;;8.10;99.90;;;;;;5115544;28;20187;-83
2021/10/23 08:03:15;;;;;;;4.17;0.73;;;8.20;99.90;;;;;;5115094;28;20541;-86
2021/10/23 08:05:41;;;;;;;7.67;0.30;;;8.40;99.90;;;;;;5115062;28;20416;-86
2021/10/23 08:08:07;;;;;;;4.57;0.60;;;8.50;99.90;;;;;;5115475;28;20658;-86
2021/10/23 08:10:35;;;;;;;4.90;0.50;;;8.70;99.90;;;;;;5096759;28;20195;-81
2021/10/23 08:13:04;;;;;;;3.37;0.50;;;9.10;99.90;;;;;;5115066;28;20446;-87
2021/10/23 08:15:30;;;;;;;3.77;0.53;;;9.40;99.90;;;;;;5114908;28;20461;-87
2021/10/23 08:17:57;;;;;;;2.83;0.87;;;9.20;99.90;;;;;;5115007;28;20469;-88
2021/10/23 08:20:22;;;;;;;3.83;0.67;;;8.90;99.90;;;;;;5114799;28;20447;-84
2021/10/23 08:22:48;;;;;;;3.30;0.93;;;8.50;99.90;;;;;;5114988;28;20405;-84
2021/10/23 08:25:14;;;;;;;4.63;0.53;;;8.30;99.90;;;;;;5115267;28;20226;-85
2021/10/23 08:27:44;;;;;;;2.03;0.20;;;9.20;99.90;;;;;;5115132;28;20229;-83
2021/10/23 08:30:16;;;;;;;6.23;0.73;;;11.30;99.90;;;;;;5097182;28;20464;-85
2021/10/23 08:32:43;;;;;;;2.17;0.50;;;11.30;99.90;;;;;;5114571;28;20435;-83
2021/10/23 08:35:10;;;;;;;3.10;0.70;;;9.90;99.90;;;;;;5114513;28;20424;-87
2021/10/23 08:37:38;;;;;;;3.70;0.80;;;9.50;99.90;;;;;;5096102;28;20473;-87
2021/10/23 08:40:06;;;;;;;3.93;0.30;;;9.30;99.90;;;;;;5096117;28;20454;-86
2021/10/23 08:42:32;;;;;;;3.13;0.40;;;9.10;99.90;;;;;;5113736;28;20476;-82
2021/10/23 08:45:08;;;;;;;5.17;1.03;;;9.10;99.90;;;;;;5114168;28;20609;-82
2021/10/23 08:47:38;;;;;;;2.53;0.43;;;9.20;99.90;;;;;;5113898;28;20447;-84
2021/10/23 08:50:06;;;;;;;8.07;0.93;;;10.50;99.90;;;;;;5095624;28;20783;-84
2021/10/23 08:52:32;;;;;;;3.83;0.60;;;10.60;99.90;;;;;;5114052;28;20449;-85
2021/10/23 08:54:58;;;;;;;3.43;0.40;;;10.10;99.90;;;;;;5112623;28;20451;-84
2021/10/23 08:57:26;;;;;;;2.30;0.30;;;9.90;99.90;;;;;;5095397;28;20625;-83
2021/10/23 08:59:52;;;;;;;5.50;0.80;;;9.80;99.90;;;;;;5096281;28;20186;-85
2021/10/23 09:02:22;;;;;;;5.37;1.07;;;10.60;99.90;;;;;;5113905;28;20875;-85
2021/10/23 09:04:49;;;;;;;3.40;0.90;;;12.20;99.90;;;;;;5113956;28;20404;-85
2021/10/23 09:07:16;;;;;;;3.87;0.40;;;13.50;99.90;;;;;;5091519;28;20956;-86
2021/10/23 09:09:51;;;;;;;3.90;0.70;;;14.70;99.90;;;;;;5101452;28;20420;-87
2021/10/23 09:12:32;;;;;;;6.33;1.70;;;15.10;99.90;;;;;;5094939;28;20483;-89
2021/10/23 09:15:04;;;;;;;1.53;0.50;;;14.70;99.90;;;;;;5091025;28;20855;-83
2021/10/23 09:17:33;;;;;;;5.13;1.20;;;13.50;99.90;;;;;;5093129;28;20457;-84
2021/10/23 09:20:10;;;;;;;2.70;0.50;;;12.00;99.90;;;;;;5091918;28;20999;-86
2021/10/23 09:22:40;;;;;;;6.33;1.07;;;11.40;99.90;;;;;;5093078;28;20409;-85
2021/10/23 09:25:18;;;;;;;3.33;0.70;;;11.10;99.90;;;;;;5093006;28;20921;-84
2021/10/23 09:28:12;;;;;;;6.00;0.80;;;11.10;99.90;;;;;;5092846;28;20403;-89
2021/10/23 09:30:42;;;;;;;5.30;1.00;;;11.40;99.90;;;;;;5091565;28;20415;-88
2021/10/23 09:33:13;;;;;;;3.70;0.40;;;12.00;99.90;;;;;;5093213;28;20902;-85
2021/10/23 09:35:43;;;;;;;4.93;0.70;;;13.10;99.90;;;;;;5092892;28;20510;-85
2021/10/23 09:38:11;;;;;;;4.47;0.80;;;14.10;99.90;;;;;;5092749;28;20465;-88
2021/10/23 09:40:38;;;;;;;4.53;1.13;;;14.00;99.90;;;;;;5093528;28;20435;-86
2021/10/23 09:43:28;;;;;;;2.10;0.80;;;14.30;99.90;;;;;;5086500;28;21006;-86
2021/10/23 09:45:59;;;;;;;2.53;0.60;;;14.40;99.90;;;;;;5098712;28;20996;-84
2021/10/23 09:48:33;;;;;;;1.20;0.40;;;14.90;99.90;;;;;;5111694;28;20476;-83
2021/10/23 09:51:27;;;;;;;1.07;0.53;;;15.20;99.90;;;;;;5095697;28;20506;-85
2021/10/23 09:54:04;;;;;;;3.10;1.10;;;15.00;99.90;;;;;;5091336;28;20475;-84
2021/10/23 09:56:38;;;;;;;2.40;0.73;;;14.80;99.90;;;;;;5091336;28;20427;-84
2021/10/23 09:59:08;;;;;;;1.70;0.30;;;15.10;99.90;;;;;;5090225;28;20717;-85
2021/10/23 10:01:40;;;;;;;4.47;0.60;;;15.20;99.90;;;;;;5078283;28;20407;-86
2021/10/23 10:04:11;;;;;;;2.60;0.50;;;15.10;99.90;;;;;;5071463;28;20822;-85
2021/10/23 10:06:37;;;;;;;3.30;0.60;;;15.20;99.90;;;;;;5069991;28;20904;-85
2021/10/23 10:09:03;;;;;;;1.90;0.40;;;15.30;99.90;;;;;;5070818;28;20436;-85
2021/10/23 10:11:29;;;;;;;5.37;2.47;;;15.50;99.90;;;;;;5071435;28;20423;-87
2021/10/23 10:13:55;;;;;;;4.30;0.40;;;16.00;99.90;;;;;;5071658;28;20459;-87
2021/10/23 10:16:21;;;;;;;2.60;0.87;;;15.90;99.90;;;;;;5087695;28;20216;-85
2021/10/23 10:18:47;;;;;;;4.00;0.50;;;16.20;99.90;;;;;;5073559;28;20470;-85
2021/10/23 10:21:17;;;;;;;2.73;0.60;;;16.30;99.90;;;;;;5091611;28;20175;-86
2021/10/23 10:23:45;;;;;;;2.07;0.93;;;16.20;99.90;;;;;;5092534;28;20433;-89
2021/10/23 10:26:17;;;;;;;3.73;0.53;;;16.50;99.90;;;;;;5092016;28;20917;-86
2021/10/23 10:29:12;;;;;;;3.83;1.00;;;16.50;99.90;;;;;;5095820;28;20992;-87
2021/10/23 10:32:10;;;;;;;4.73;1.23;;;16.30;99.90;;;;;;5095702;28;20548;-86
2021/10/23 10:43:08;;;;;;;2.70;0.40;;;15.90;99.90;;;;;;5095289;28;20442;-86
2021/10/23 10:45:40;;;;;;;3.93;0.83;;;15.60;99.90;;;;;;5093017;28;20432;-85
2021/10/23 10:48:25;;;;;;;7.60;1.20;;;15.70;99.90;;;;;;5101779;28;20434;-84
2021/10/23 10:50:52;;;;;;;2.73;0.40;;;16.00;99.90;;;;;;5094238;27;20520;-82
2021/10/23 10:53:41;;;;;;;4.03;0.90;;;16.30;99.90;;;;;;5117427;27;20421;-85
2021/10/23 10:56:11;;;;;;;2.37;0.70;;;16.50;99.90;;;;;;5118010;27;20785;-85
2021/10/23 10:58:55;;;;;;;2.70;0.30;;;16.50;99.90;;;;;;5122185;27;20472;-86
2021/10/23 11:01:32;;;;;;;2.63;0.50;;;16.30;99.90;;;;;;5115771;28;20405;-85
2021/10/23 11:04:08;;;;;;;3.27;0.60;;;16.20;99.90;;;;;;5097984;28;20414;-86
2021/10/23 11:06:34;;;;;;;5.93;0.87;;;16.10;99.90;;;;;;5077100;28;20932;-87
2021/10/23 11:11:49;;;;;;;3.60;0.80;;;15.40;99.90;;;;;;5094536;28;20513;-83
2021/10/23 11:14:24;;;;;;;2.80;0.63;;;15.70;99.90;;;;;;5102245;28;20427;-83
2021/10/23 11:16:59;;;;;;;9.53;1.20;;;15.60;99.90;;;;;;5097312;28;20565;-87
2021/10/23 11:19:25;;;;;;;7.40;1.67;;;15.00;99.90;;;;;;5088132;27;20443;-84
2021/10/23 11:22:04;;;;;;;1.80;0.53;;;15.20;99.90;;;;;;5097932;27;20801;-85
2021/10/23 11:24:36;;;;;;;4.30;0.53;;;15.30;99.90;;;;;;5135167;27;20182;-86
2021/10/23 11:27:02;;;;;;;1.50;0.30;;;15.50;99.90;;;;;;5113565;27;20534;-88
2021/10/23 11:29:29;;;;;;;2.80;0.77;;;14.90;99.90;;;;;;5135676;27;20522;-85
2021/10/23 11:31:59;;;;;;;4.80;1.30;;;14.20;99.90;;;;;;5135819;27;20443;-87
2021/10/23 11:34:32;;;;;;;3.47;0.57;;;14.40;99.90;;;;;;5115898;27;20568;-86
2021/10/23 11:37:11;;;;;;;5.17;0.70;;;13.70;99.90;;;;;;5135966;27;20403;-86
2021/10/23 11:39:40;;;;;;;3.93;1.00;;;13.70;99.90;;;;;;5135467;27;20913;-85
2021/10/23 11:42:28;;;;;;;2.33;0.53;;;13.60;99.90;;;;;;5130892;27;20408;-85
2021/10/23 11:45:15;;;;;;;6.40;1.07;;;13.60;99.90;;;;;;5095147;28;20417;-86
2021/10/23 11:47:41;;;;;;;7.17;1.13;;;13.40;99.90;;;;;;5087210;28;20438;-85
2021/10/23 11:50:32;;;;;;;2.57;0.50;;;13.20;99.90;;;;;;5115440;28;20480;-85
2021/10/23 11:53:01;;;;;;;2.97;0.40;;;13.20;99.90;;;;;;5102254;28;20185;-84
2021/10/23 11:55:33;;;;;;;1.67;0.60;;;14.00;99.90;;;;;;5114819;28;20401;-85
2021/10/23 11:58:01;;;;;;;5.10;0.90;;;15.50;99.90;;;;;;5112391;28;20465;-86
2021/10/23 12:00:31;;;;;;;1.57;0.80;;;16.80;99.90;;;;;;5097123;28;20425;-87
2021/10/23 12:02:59;;;;;;;2.30;0.70;;;17.10;99.90;;;;;;5114104;28;20415;-87
2021/10/23 12:05:37;;;;;;;5.77;0.67;;;17.10;99.90;;;;;;5105560;28;20410;-85
2021/10/23 12:08:13;;;;;;;5.50;1.27;;;16.30;99.90;;;;;;5093535;28;20763;-86
2021/10/23 12:11:12;;;;;;;7.63;0.67;;;15.80;99.90;;;;;;5074877;28;20428;-85
2021/10/23 12:14:03;;;;;;;5.80;1.40;;;16.40;99.90;;;;;;5093372;28;20414;-85
2021/10/23 12:16:49;;;;;;;4.30;0.83;;;16.20;99.90;;;;;;5077315;28;20770;-87
2021/10/23 12:19:19;;;;;;;3.67;0.63;;;15.90;99.90;;;;;;5093375;28;20414;-84
2021/10/23 12:22:03;;;;;;;3.13;0.80;;;15.80;99.90;;;;;;5093276;28;20462;-84
2021/10/23 12:24:39;;;;;;;1.80;0.40;;;16.50;99.90;;;;;;5093156;28;20442;-83
2021/10/23 12:27:24;;;;;;;5.73;1.27;;;17.30;99.90;;;;;;5092871;28;20918;-84
2021/10/23 12:29:57;;;;;;;3.30;0.90;;;17.70;99.90;;;;;;5093652;28;20457;-86
2021/10/23 12:32:41;;;;;;;3.13;0.30;;;17.60;99.90;;;;;;5093290;28;20398;-88
2021/10/23 12:35:20;;;;;;;4.47;1.13;;;17.60;99.90;;;;;;5093157;28;20415;-87
2021/10/23 12:37:52;;;;;;;1.20;0.50;;;16.90;99.90;;;;;;5092849;28;21060;-84
2021/10/23 12:40:39;;;;;;;6.27;0.67;;;15.50;99.90;;;;;;5092615;28;20920;-83
2021/10/23 12:43:12;;;;;;;2.60;0.60;;;15.10;99.90;;;;;;5092954;28;20419;-84
2021/10/23 12:45:42;;;;;;;4.23;0.80;;;15.10;99.90;;;;;;5095679;27;20459;-84
2021/10/23 12:48:19;;;;;;;2.30;0.70;;;14.50;99.90;;;;;;5128222;27;20448;-85
2021/10/23 12:50:47;;;;;;;3.30;0.67;;;14.10;99.90;;;;;;5094719;28;20428;-84
2021/10/23 12:53:13;;;;;;;2.00;0.50;;;13.80;99.90;;;;;;5099401;28;20428;-86
2021/10/23 12:55:41;;;;;;;1.67;0.50;;;13.70;99.90;;;;;;5103582;28;20494;-85
2021/10/23 12:58:06;;;;;;;2.70;0.87;;;13.50;99.90;;;;;;5079049;28;20475;-84
2021/10/23 13:00:32;;;;;;;4.10;1.10;;;13.20;99.90;;;;;;5107051;28;20421;-83
2021/10/23 13:03:03;;;;;;;6.20;0.57;;;13.10;99.90;;;;;;5112629;28;20182;-83
2021/10/23 13:05:29;;;;;;;1.70;0.30;;;12.70;99.90;;;;;;5112518;28;20165;-83
2021/10/23 13:07:55;;;;;;;7.70;1.27;;;12.60;99.90;;;;;;5111513;28;20951;-83
2021/10/23 13:10:20;;;;;;;5.03;0.60;;;12.50;99.90;;;;;;5121453;27;20263;-83